createdAt,value
2022-10-28T00:03:56.213Z,66.23
2022-10-28T00:08:49.084Z,66.25
2022-10-28T00:13:44.052Z,65.75
2022-10-28T00:18:38.009Z,65.75
2022-10-28T00:23:33.206Z,65.86
2022-10-28T00:28:26.582Z,65.48
2022-10-28T00:33:20.725Z,66.05
2022-10-28T00:38:14.358Z,65.57
2022-10-28T00:43:07.923Z,65.82
2022-10-28T00:48:04.315Z,65.48
2022-10-28T00:53:01.911Z,65.55
2022-10-28T00:57:57.248Z,65.73
2022-10-28T01:02:54.681Z,65.76
2022-10-28T01:07:47.538Z,65.92
2022-10-28T01:13:07.396Z,65.31
2022-10-28T01:18:15.149Z,65.68
2022-10-28T01:23:13.615Z,65.63
2022-10-28T01:28:19.191Z,65.57
2022-10-28T01:33:25.716Z,65.72
2022-10-28T01:38:36.375Z,65.59
2022-10-28T01:43:42.745Z,65.36
2022-10-28T01:48:49.650Z,65.55
2022-10-28T01:53:52.020Z,65.43
2022-10-28T01:58:46.676Z,65.36
2022-10-28T02:03:39.986Z,64.99
2022-10-28T02:08:56.981Z,65.06
2022-10-28T02:14:11.911Z,65.33
2022-10-28T02:19:52.234Z,64.85
2022-10-28T02:25:12.924Z,65.21
2022-10-28T02:30:08.886Z,64.87
2022-10-28T02:35:04.131Z,65.15
2022-10-28T02:40:21.588Z,65.05
2022-10-28T02:45:26.264Z,65.04
2022-10-28T02:50:25.710Z,64.50
2022-10-28T02:55:21.624Z,64.67
2022-10-28T03:00:23.003Z,64.97
2022-10-28T03:05:16.499Z,64.81
2022-10-28T03:10:11.766Z,64.92
2022-10-28T03:15:05.626Z,64.86
2022-10-28T03:19:58.964Z,64.66
2022-10-28T03:24:52.304Z,64.39
2022-10-28T03:29:47.126Z,64.30
2022-10-28T03:34:40.522Z,64.66
2022-10-28T03:39:37.975Z,64.61
2022-10-28T03:44:30.937Z,64.62
2022-10-28T03:49:24.346Z,64.29
2022-10-28T03:54:18.225Z,64.32
2022-10-28T03:59:14.072Z,64.23
2022-10-28T04:04:09.301Z,64.27
2022-10-28T04:09:01.997Z,64.16
2022-10-28T04:13:56.033Z,64.20
2022-10-28T04:18:49.779Z,64.11
2022-10-28T04:23:43.252Z,64.39
2022-10-28T04:28:37.143Z,64.05
2022-10-28T04:33:30.968Z,64.15
2022-10-28T04:43:23.476Z,64.04
2022-10-28T04:48:16.480Z,64.38
2022-10-28T04:53:10.405Z,64.39
2022-10-28T04:58:04.372Z,64.29
2022-10-28T05:02:58.316Z,64.00
2022-10-28T05:07:52.681Z,64.02
2022-10-28T05:12:47.002Z,63.80
2022-10-28T05:17:44.922Z,64.10
2022-10-28T05:22:38.966Z,64.42
2022-10-28T05:27:32.821Z,64.41
2022-10-28T05:32:26.552Z,64.28
2022-10-28T05:37:20.344Z,64.44
2022-10-28T05:42:14.069Z,64.07
2022-10-28T05:47:08.467Z,62.68
2022-10-28T05:52:01.844Z,61.00
2022-10-28T05:56:55.444Z,60.05
2022-10-28T06:01:48.265Z,60.37
2022-10-28T06:06:45.694Z,60.65
2022-10-28T06:11:37.658Z,61.42
2022-10-28T06:16:31.483Z,62.52
2022-10-28T06:21:24.719Z,62.18
2022-10-28T06:26:18.153Z,62.13
2022-10-28T06:31:11.618Z,62.44
2022-10-28T06:36:05.845Z,62.18
2022-10-28T06:40:59.316Z,59.05
2022-10-28T06:45:56.280Z,57.78
2022-10-28T06:50:51.507Z,57.53
2022-10-28T06:55:48.880Z,56.52
2022-10-28T07:00:48.774Z,56.52
2022-10-28T07:05:42.554Z,56.97
2022-10-28T07:10:36.769Z,57.66
2022-10-28T07:15:29.983Z,57.54
2022-10-28T07:20:24.397Z,57.68
2022-10-28T07:25:19.102Z,57.54
2022-10-28T07:30:14.623Z,58.39
2022-10-28T07:35:07.663Z,58.53
2022-10-28T07:40:01.567Z,58.56
2022-10-28T07:44:55.658Z,58.55
2022-10-28T07:49:48.966Z,58.76
2022-10-28T07:54:42.902Z,59.16
2022-10-28T07:59:36.930Z,59.68
2022-10-28T08:04:31.030Z,59.63
2022-10-28T08:09:24.770Z,59.67
2022-10-28T08:14:22.016Z,59.79
2022-10-28T08:19:15.027Z,60.07
2022-10-28T08:24:09.278Z,60.34
2022-10-28T08:29:03.631Z,60.62
2022-10-28T08:33:57.681Z,60.79
2022-10-28T08:38:51.538Z,60.53
2022-10-28T08:44:19.223Z,60.68
2022-10-28T08:49:35.103Z,60.73
2022-10-28T08:54:55.306Z,60.63
2022-10-28T08:59:53.280Z,60.83
2022-10-28T09:04:47.556Z,61.48
2022-10-28T09:09:41.471Z,61.35
2022-10-28T09:14:37.830Z,61.16
2022-10-28T09:19:54.348Z,61.32
2022-10-28T09:25:01.356Z,61.47
2022-10-28T09:30:00.515Z,61.69
2022-10-28T09:34:53.087Z,61.51
2022-10-28T09:40:00.681Z,61.50
2022-10-28T09:45:06.874Z,61.80
2022-10-28T09:50:03.912Z,61.63
2022-10-28T09:54:59.251Z,61.66
2022-10-28T09:59:53.179Z,62.05
2022-10-28T10:04:47.019Z,61.66
2022-10-28T10:09:41.056Z,61.75
2022-10-28T10:14:57.534Z,61.72
2022-10-28T10:20:10.972Z,61.76
2022-10-28T10:25:27.046Z,61.91
2022-10-28T10:30:27.127Z,62.11
2022-10-28T10:35:29.694Z,61.95
2022-10-28T10:40:27.522Z,61.95
2022-10-28T10:45:28.422Z,61.81
2022-10-28T10:55:43.146Z,61.84
2022-10-28T11:00:58.623Z,62.26
2022-10-28T11:06:21.918Z,62.08
2022-10-28T11:11:33.384Z,62.09
2022-10-28T11:16:27.114Z,62.34
2022-10-28T11:21:31.588Z,62.12
2022-10-28T11:26:26.302Z,61.63
2022-10-28T11:31:31.306Z,61.83
2022-10-28T11:36:49.509Z,62.47
2022-10-28T11:41:57.544Z,62.53
2022-10-28T11:47:10.239Z,62.35
2022-10-28T11:52:25.124Z,61.98
2022-10-28T11:57:25.610Z,62.40
2022-10-28T12:02:43.793Z,62.33
2022-10-28T12:07:50.980Z,62.81
2022-10-28T12:13:04.387Z,62.79
2022-10-28T12:17:57.372Z,62.93
2022-10-28T12:23:00.146Z,63.55
2022-10-28T12:27:58.546Z,63.19
2022-10-28T12:33:15.073Z,62.89
2022-10-28T12:38:08.041Z,63.15
2022-10-28T12:43:13.187Z,63.26
2022-10-28T12:48:32.141Z,62.75
2022-10-28T12:53:43.618Z,63.01
2022-10-28T12:59:10.666Z,62.95
2022-10-28T13:04:05.263Z,62.66
2022-10-28T13:09:10.044Z,62.74
2022-10-28T13:14:15.490Z,62.86
2022-10-28T13:19:42.147Z,62.72
2022-10-28T13:24:48.731Z,62.57
2022-10-28T13:29:44.778Z,62.37
2022-10-28T13:34:59.848Z,62.52
2022-10-28T13:40:21.728Z,62.67
2022-10-28T13:45:53.993Z,62.79
2022-10-28T13:50:47.968Z,63.00
2022-10-28T13:55:40.294Z,62.90
2022-10-28T14:00:32.750Z,62.60
2022-10-28T14:05:46.299Z,62.76
2022-10-28T14:10:42.238Z,62.89
2022-10-28T14:15:42.043Z,62.68
2022-10-28T14:21:02.530Z,63.00
2022-10-28T14:25:56.290Z,62.78
2022-10-28T14:31:08.195Z,62.71
2022-10-28T14:36:22.399Z,62.43
2022-10-28T14:41:42.062Z,62.66
2022-10-28T14:47:00.091Z,62.72
2022-10-28T14:51:55.370Z,62.48
2022-10-28T14:56:49.988Z,62.82
2022-10-28T15:02:20.642Z,62.64
2022-10-28T15:07:20.229Z,62.76
2022-10-28T15:12:17.821Z,62.39
2022-10-28T15:17:15.554Z,62.54
2022-10-28T15:22:22.751Z,62.52
2022-10-28T15:27:19.822Z,62.33
2022-10-28T15:32:21.730Z,62.36
2022-10-28T15:37:26.245Z,62.51
2022-10-28T15:43:01.712Z,62.37
2022-10-28T15:47:56.871Z,62.37
2022-10-28T15:52:56.747Z,62.10
2022-10-28T15:57:53.042Z,62.50
2022-10-28T16:02:54.159Z,62.74
2022-10-28T16:07:48.487Z,62.38
2022-10-28T16:12:45.587Z,62.47
2022-10-28T16:17:44.416Z,62.48
2022-10-28T16:22:39.835Z,62.97
2022-10-28T16:27:33.827Z,62.85
2022-10-28T16:32:35.695Z,62.54
2022-10-28T16:37:32.052Z,62.31
2022-10-28T16:42:26.271Z,61.95
2022-10-28T16:47:21.043Z,62.31
2022-10-28T16:52:17.829Z,62.03
2022-10-28T16:57:11.338Z,61.89
2022-10-28T17:02:05.720Z,62.09
2022-10-28T17:06:59.873Z,61.64
2022-10-28T17:11:59.047Z,61.75
2022-10-28T17:17:01.224Z,62.33
2022-10-28T17:21:58.392Z,63.62
2022-10-28T17:26:57.535Z,64.96
2022-10-28T17:31:59.756Z,67.06
2022-10-28T17:36:59.701Z,67.32
2022-10-28T17:42:00.391Z,66.57
2022-10-28T17:47:03.761Z,66.71
2022-10-28T17:52:05.062Z,66.57
2022-10-28T17:57:02.594Z,65.72
2022-10-28T18:02:02.404Z,65.44
2022-10-28T18:07:10.939Z,64.83
2022-10-28T18:12:16.367Z,64.38
2022-10-28T18:17:18.185Z,64.24
2022-10-28T18:22:18.384Z,64.10
2022-10-28T18:27:18.411Z,63.01
2022-10-28T18:32:17.186Z,62.33
2022-10-28T18:37:12.576Z,62.66
2022-10-28T18:42:06.469Z,63.13
2022-10-28T18:47:00.768Z,62.51
2022-10-28T18:51:54.105Z,62.85
2022-10-28T18:56:57.599Z,63.13
2022-10-28T19:01:53.338Z,62.84
2022-10-28T19:06:47.281Z,62.96
2022-10-28T19:11:42.015Z,63.19
2022-10-28T19:16:36.795Z,62.61
2022-10-28T19:21:30.388Z,63.09
2022-10-28T19:26:24.459Z,62.79
2022-10-28T19:31:24.279Z,62.42
2022-10-28T19:36:19.944Z,62.15
2022-10-28T19:41:16.567Z,61.93
2022-10-28T19:46:14.700Z,62.12
2022-10-28T19:51:09.383Z,61.77
2022-10-28T19:56:05.381Z,62.09
2022-10-28T20:01:03.789Z,61.66
2022-10-28T20:06:25.046Z,62.20
2022-10-28T20:11:24.930Z,61.81
2022-10-28T20:16:21.429Z,62.32
2022-10-28T20:21:34.305Z,61.94
2022-10-28T20:26:30.135Z,61.96
2022-10-28T20:31:25.873Z,61.96
2022-10-28T20:36:36.788Z,61.75
2022-10-28T20:41:32.464Z,61.83
2022-10-28T20:46:26.320Z,61.96
2022-10-28T20:51:19.357Z,61.81
2022-10-28T20:56:20.939Z,62.20
2022-10-28T21:01:17.735Z,61.80
2022-10-28T21:11:08.654Z,61.73
2022-10-28T21:16:09.637Z,61.84
2022-10-28T21:21:09.320Z,61.95
2022-10-28T21:26:05.214Z,62.17
2022-10-28T21:31:01.984Z,61.97
2022-10-28T21:35:58.688Z,62.11
2022-10-28T21:41:00.895Z,61.93
2022-10-28T21:46:01.447Z,61.98
2022-10-28T21:50:55.904Z,61.55
2022-10-28T21:55:51.170Z,61.74
2022-10-28T22:00:44.513Z,61.61
2022-10-28T22:05:38.206Z,62.63
2022-10-28T22:10:31.534Z,62.01
2022-10-28T22:15:25.349Z,62.21
2022-10-28T22:20:19.571Z,61.93
2022-10-28T22:25:13.440Z,62.08
2022-10-28T22:30:07.806Z,62.49
2022-10-28T22:35:01.542Z,62.49
2022-10-28T22:39:55.610Z,62.27
2022-10-28T22:44:48.894Z,62.23
2022-10-28T22:49:41.997Z,62.33
2022-10-28T22:54:36.543Z,62.66
2022-10-28T22:59:30.211Z,62.93
2022-10-28T23:04:30.882Z,62.81
2022-10-28T23:09:24.564Z,62.56
2022-10-28T23:14:17.893Z,62.49
2022-10-28T23:19:10.880Z,62.67
2022-10-28T23:24:04.754Z,62.50
2022-10-28T23:29:00.109Z,62.37
2022-10-28T23:33:55.844Z,62.64
2022-10-28T23:38:48.918Z,62.64
2022-10-28T23:43:43.501Z,62.82
2022-10-28T23:48:37.040Z,62.52
2022-10-28T23:53:31.222Z,62.53
2022-10-28T23:58:24.656Z,62.16
